sensor_id;sensor_type;location;lat;lon;timestamp;P1;durP1;ratioP1;P2;durP2;ratioP2
63975;SDS011;50167;47.958;21.780;2023-02-28T00:01:12;7.62;;;4.60;;
63975;SDS011;50167;47.958;21.780;2023-02-28T00:03:39;9.70;;;5.10;;
63975;SDS011;50167;47.958;21.780;2023-02-28T00:06:06;6.85;;;4.10;;
63975;SDS011;50167;47.958;21.780;2023-02-28T00:08:34;8.10;;;4.53;;
63975;SDS011;50167;47.958;21.780;2023-02-28T00:11:02;9.75;;;5.30;;
63975;SDS011;50167;47.958;21.780;2023-02-28T00:13:30;8.03;;;4.83;;
63975;SDS011;50167;47.958;21.780;2023-02-28T00:16:04;9.00;;;4.60;;
63975;SDS011;50167;47.958;21.780;2023-02-28T00:18:40;8.05;;;4.50;;
63975;SDS011;50167;47.958;21.780;2023-02-28T00:21:07;7.72;;;4.72;;
63975;SDS011;50167;47.958;21.780;2023-02-28T00:23:34;9.00;;;4.50;;
63975;SDS011;50167;47.958;21.780;2023-02-28T00:26:01;9.83;;;5.17;;
63975;SDS011;50167;47.958;21.780;2023-02-28T00:28:28;10.55;;;5.95;;
63975;SDS011;50167;47.958;21.780;2023-02-28T00:30:54;7.70;;;4.03;;
63975;SDS011;50167;47.958;21.780;2023-02-28T00:33:22;12.93;;;5.37;;
63975;SDS011;50167;47.958;21.780;2023-02-28T00:35:48;6.42;;;4.15;;
63975;SDS011;50167;47.958;21.780;2023-02-28T00:38:15;8.60;;;5.42;;
63975;SDS011;50167;47.958;21.780;2023-02-28T00:40:41;8.58;;;4.97;;
63975;SDS011;50167;47.958;21.780;2023-02-28T00:43:07;5.85;;;4.62;;
63975;SDS011;50167;47.958;21.780;2023-02-28T00:45:34;9.15;;;4.95;;
63975;SDS011;50167;47.958;21.780;2023-02-28T00:48:00;5.90;;;3.80;;
63975;SDS011;50167;47.958;21.780;2023-02-28T00:50:26;9.90;;;5.35;;
63975;SDS011;50167;47.958;21.780;2023-02-28T00:52:52;9.40;;;4.60;;
63975;SDS011;50167;47.958;21.780;2023-02-28T00:55:19;7.10;;;3.75;;
63975;SDS011;50167;47.958;21.780;2023-02-28T00:57:45;8.38;;;4.42;;
63975;SDS011;50167;47.958;21.780;2023-02-28T01:00:11;8.80;;;5.50;;
63975;SDS011;50167;47.958;21.780;2023-02-28T01:02:38;8.25;;;3.72;;
63975;SDS011;50167;47.958;21.780;2023-02-28T01:05:05;7.03;;;4.30;;
63975;SDS011;50167;47.958;21.780;2023-02-28T01:07:32;8.38;;;5.17;;
63975;SDS011;50167;47.958;21.780;2023-02-28T01:09:58;7.75;;;4.80;;
63975;SDS011;50167;47.958;21.780;2023-02-28T01:12:24;8.03;;;4.97;;
63975;SDS011;50167;47.958;21.780;2023-02-28T01:14:51;8.53;;;5.47;;
63975;SDS011;50167;47.958;21.780;2023-02-28T01:17:17;9.40;;;5.20;;
63975;SDS011;50167;47.958;21.780;2023-02-28T01:19:43;8.90;;;5.10;;
63975;SDS011;50167;47.958;21.780;2023-02-28T01:22:09;6.60;;;4.62;;
63975;SDS011;50167;47.958;21.780;2023-02-28T01:24:35;8.13;;;4.75;;
63975;SDS011;50167;47.958;21.780;2023-02-28T01:27:03;6.80;;;4.25;;
63975;SDS011;50167;47.958;21.780;2023-02-28T01:29:29;8.23;;;4.22;;
63975;SDS011;50167;47.958;21.780;2023-02-28T01:31:56;7.20;;;4.37;;
63975;SDS011;50167;47.958;21.780;2023-02-28T01:34:24;9.83;;;4.20;;
63975;SDS011;50167;47.958;21.780;2023-02-28T01:36:50;7.40;;;4.97;;
63975;SDS011;50167;47.958;21.780;2023-02-28T01:39:16;8.80;;;4.80;;
63975;SDS011;50167;47.958;21.780;2023-02-28T01:41:43;7.58;;;4.50;;
63975;SDS011;50167;47.958;21.780;2023-02-28T01:47:18;8.88;;;4.35;;
63975;SDS011;50167;47.958;21.780;2023-02-28T01:49:44;7.35;;;5.08;;
63975;SDS011;50167;47.958;21.780;2023-02-28T01:52:10;8.83;;;4.47;;
63975;SDS011;50167;47.958;21.780;2023-02-28T01:54:41;5.87;;;4.47;;
63975;SDS011;50167;47.958;21.780;2023-02-28T01:57:09;7.08;;;4.15;;
63975;SDS011;50167;47.958;21.780;2023-02-28T01:59:41;9.85;;;4.90;;
63975;SDS011;50167;47.958;21.780;2023-02-28T02:02:14;10.20;;;4.97;;
63975;SDS011;50167;47.958;21.780;2023-02-28T02:04:45;8.30;;;4.90;;
63975;SDS011;50167;47.958;21.780;2023-02-28T02:07:23;11.22;;;4.65;;
63975;SDS011;50167;47.958;21.780;2023-02-28T02:09:59;8.23;;;5.47;;
63975;SDS011;50167;47.958;21.780;2023-02-28T02:15:29;8.30;;;4.73;;
63975;SDS011;50167;47.958;21.780;2023-02-28T02:18:14;8.13;;;4.78;;
63975;SDS011;50167;47.958;21.780;2023-02-28T02:21:41;9.28;;;5.45;;
63975;SDS011;50167;47.958;21.780;2023-02-28T02:38:23;6.72;;;4.62;;
63975;SDS011;50167;47.958;21.780;2023-02-28T02:43:56;8.00;;;4.37;;
63975;SDS011;50167;47.958;21.780;2023-02-28T02:46:33;8.98;;;4.78;;
63975;SDS011;50167;47.958;21.780;2023-02-28T02:49:03;6.83;;;4.17;;
63975;SDS011;50167;47.958;21.780;2023-02-28T02:51:33;7.17;;;4.47;;
63975;SDS011;50167;47.958;21.780;2023-02-28T02:54:02;9.23;;;4.83;;
63975;SDS011;50167;47.958;21.780;2023-02-28T02:56:33;7.35;;;4.30;;
63975;SDS011;50167;47.958;21.780;2023-02-28T02:59:02;11.08;;;6.42;;
63975;SDS011;50167;47.958;21.780;2023-02-28T03:01:31;5.03;;;2.87;;
63975;SDS011;50167;47.958;21.780;2023-02-28T03:04:04;6.67;;;4.70;;
63975;SDS011;50167;47.958;21.780;2023-02-28T03:06:37;7.03;;;4.62;;
63975;SDS011;50167;47.958;21.780;2023-02-28T03:09:03;13.15;;;6.15;;
63975;SDS011;50167;47.958;21.780;2023-02-28T03:11:29;8.23;;;4.75;;
63975;SDS011;50167;47.958;21.780;2023-02-28T03:22:52;10.88;;;5.87;;
63975;SDS011;50167;47.958;21.780;2023-02-28T03:25:33;7.50;;;4.25;;
63975;SDS011;50167;47.958;21.780;2023-02-28T03:33:30;7.78;;;4.67;;
63975;SDS011;50167;47.958;21.780;2023-02-28T03:36:05;7.90;;;5.33;;
63975;SDS011;50167;47.958;21.780;2023-02-28T03:38:40;6.95;;;4.30;;
63975;SDS011;50167;47.958;21.780;2023-02-28T03:41:30;8.85;;;5.05;;
63975;SDS011;50167;47.958;21.780;2023-02-28T03:44:09;10.80;;;6.00;;
63975;SDS011;50167;47.958;21.780;2023-02-28T03:46:47;10.70;;;4.15;;
63975;SDS011;50167;47.958;21.780;2023-02-28T03:49:17;9.35;;;5.55;;
63975;SDS011;50167;47.958;21.780;2023-02-28T03:51:47;7.33;;;4.75;;
63975;SDS011;50167;47.958;21.780;2023-02-28T03:54:18;11.25;;;5.33;;
63975;SDS011;50167;47.958;21.780;2023-02-28T03:56:57;9.75;;;4.92;;
63975;SDS011;50167;47.958;21.780;2023-02-28T03:59:47;8.48;;;5.22;;
63975;SDS011;50167;47.958;21.780;2023-02-28T04:02:17;9.20;;;5.55;;
63975;SDS011;50167;47.958;21.780;2023-02-28T04:04:43;9.45;;;5.80;;
63975;SDS011;50167;47.958;21.780;2023-02-28T04:07:12;6.85;;;4.50;;
63975;SDS011;50167;47.958;21.780;2023-02-28T04:09:38;10.38;;;5.70;;
63975;SDS011;50167;47.958;21.780;2023-02-28T04:12:04;9.63;;;5.78;;
63975;SDS011;50167;47.958;21.780;2023-02-28T04:14:31;9.60;;;5.45;;
63975;SDS011;50167;47.958;21.780;2023-02-28T04:16:57;8.55;;;4.30;;
63975;SDS011;50167;47.958;21.780;2023-02-28T04:19:24;7.78;;;5.75;;
63975;SDS011;50167;47.958;21.780;2023-02-28T04:21:51;9.63;;;6.50;;
63975;SDS011;50167;47.958;21.780;2023-02-28T04:24:20;9.60;;;6.08;;
63975;SDS011;50167;47.958;21.780;2023-02-28T04:26:52;7.47;;;5.03;;
63975;SDS011;50167;47.958;21.780;2023-02-28T04:29:25;11.80;;;5.67;;
63975;SDS011;50167;47.958;21.780;2023-02-28T04:31:54;8.95;;;5.55;;
63975;SDS011;50167;47.958;21.780;2023-02-28T04:34:23;11.85;;;6.62;;
63975;SDS011;50167;47.958;21.780;2023-02-28T04:36:51;11.15;;;6.10;;
63975;SDS011;50167;47.958;21.780;2023-02-28T04:39:20;8.40;;;5.25;;
63975;SDS011;50167;47.958;21.780;2023-02-28T04:41:48;9.60;;;5.90;;
63975;SDS011;50167;47.958;21.780;2023-02-28T04:44:14;9.33;;;6.42;;
63975;SDS011;50167;47.958;21.780;2023-02-28T04:46:41;10.58;;;6.35;;
63975;SDS011;50167;47.958;21.780;2023-02-28T04:49:09;7.55;;;5.42;;
63975;SDS011;50167;47.958;21.780;2023-02-28T04:51:38;9.10;;;6.85;;
63975;SDS011;50167;47.958;21.780;2023-02-28T04:54:05;7.75;;;5.67;;
63975;SDS011;50167;47.958;21.780;2023-02-28T04:56:31;8.70;;;5.37;;
63975;SDS011;50167;47.958;21.780;2023-02-28T04:58:57;12.45;;;7.20;;
63975;SDS011;50167;47.958;21.780;2023-02-28T05:01:31;10.13;;;6.12;;
63975;SDS011;50167;47.958;21.780;2023-02-28T05:04:00;9.10;;;6.62;;
63975;SDS011;50167;47.958;21.780;2023-02-28T05:06:30;9.95;;;5.80;;
63975;SDS011;50167;47.958;21.780;2023-02-28T05:08:58;10.05;;;6.03;;
63975;SDS011;50167;47.958;21.780;2023-02-28T05:11:29;11.18;;;6.03;;
63975;SDS011;50167;47.958;21.780;2023-02-28T05:14:01;12.35;;;6.87;;
63975;SDS011;50167;47.958;21.780;2023-02-28T05:16:29;11.48;;;6.67;;
63975;SDS011;50167;47.958;21.780;2023-02-28T05:18:56;12.53;;;7.60;;
63975;SDS011;50167;47.958;21.780;2023-02-28T05:21:23;11.85;;;6.97;;
63975;SDS011;50167;47.958;21.780;2023-02-28T05:24:04;13.08;;;6.87;;
63975;SDS011;50167;47.958;21.780;2023-02-28T05:26:38;12.30;;;7.47;;
63975;SDS011;50167;47.958;21.780;2023-02-28T05:29:07;13.20;;;8.15;;
63975;SDS011;50167;47.958;21.780;2023-02-28T05:31:34;11.48;;;6.83;;
63975;SDS011;50167;47.958;21.780;2023-02-28T05:34:00;13.35;;;7.28;;
63975;SDS011;50167;47.958;21.780;2023-02-28T05:36:29;12.45;;;7.00;;
63975;SDS011;50167;47.958;21.780;2023-02-28T05:38:56;13.18;;;6.45;;
63975;SDS011;50167;47.958;21.780;2023-02-28T05:41:22;12.60;;;6.75;;
63975;SDS011;50167;47.958;21.780;2023-02-28T05:43:49;10.60;;;6.45;;
63975;SDS011;50167;47.958;21.780;2023-02-28T05:46:15;13.72;;;7.20;;
63975;SDS011;50167;47.958;21.780;2023-02-28T05:48:42;13.38;;;6.65;;
63975;SDS011;50167;47.958;21.780;2023-02-28T05:51:12;8.35;;;5.53;;
63975;SDS011;50167;47.958;21.780;2023-02-28T05:53:38;12.35;;;7.05;;
63975;SDS011;50167;47.958;21.780;2023-02-28T05:56:04;15.35;;;7.92;;
63975;SDS011;50167;47.958;21.780;2023-02-28T05:58:31;10.55;;;7.15;;
63975;SDS011;50167;47.958;21.780;2023-02-28T06:00:58;11.93;;;6.55;;
63975;SDS011;50167;47.958;21.780;2023-02-28T06:03:25;10.63;;;6.95;;
63975;SDS011;50167;47.958;21.780;2023-02-28T06:05:54;12.10;;;7.12;;
63975;SDS011;50167;47.958;21.780;2023-02-28T06:08:20;9.43;;;5.58;;
63975;SDS011;50167;47.958;21.780;2023-02-28T06:10:46;11.28;;;6.33;;
63975;SDS011;50167;47.958;21.780;2023-02-28T06:13:13;13.68;;;7.12;;
63975;SDS011;50167;47.958;21.780;2023-02-28T06:15:39;10.90;;;6.15;;
63975;SDS011;50167;47.958;21.780;2023-02-28T06:18:06;11.70;;;6.33;;
63975;SDS011;50167;47.958;21.780;2023-02-28T06:20:32;13.90;;;6.67;;
63975;SDS011;50167;47.958;21.780;2023-02-28T06:22:59;10.72;;;6.28;;
63975;SDS011;50167;47.958;21.780;2023-02-28T06:25:26;9.33;;;6.08;;
63975;SDS011;50167;47.958;21.780;2023-02-28T06:27:53;10.23;;;6.45;;
63975;SDS011;50167;47.958;21.780;2023-02-28T06:30:20;10.23;;;6.30;;
63975;SDS011;50167;47.958;21.780;2023-02-28T06:32:49;9.80;;;6.45;;
63975;SDS011;50167;47.958;21.780;2023-02-28T06:35:15;10.80;;;6.83;;
63975;SDS011;50167;47.958;21.780;2023-02-28T06:37:42;9.85;;;5.80;;
63975;SDS011;50167;47.958;21.780;2023-02-28T06:40:09;10.80;;;6.62;;
63975;SDS011;50167;47.958;21.780;2023-02-28T06:42:38;12.63;;;5.87;;
63975;SDS011;50167;47.958;21.780;2023-02-28T06:45:05;9.43;;;6.12;;
63975;SDS011;50167;47.958;21.780;2023-02-28T06:47:34;9.53;;;5.47;;
63975;SDS011;50167;47.958;21.780;2023-02-28T06:50:02;12.53;;;7.03;;
63975;SDS011;50167;47.958;21.780;2023-02-28T06:52:30;12.18;;;7.42;;
63975;SDS011;50167;47.958;21.780;2023-02-28T06:54:56;9.68;;;5.60;;
63975;SDS011;50167;47.958;21.780;2023-02-28T06:57:29;11.65;;;6.17;;
63975;SDS011;50167;47.958;21.780;2023-02-28T06:59:58;12.98;;;7.00;;
63975;SDS011;50167;47.958;21.780;2023-02-28T07:02:25;10.80;;;7.25;;
63975;SDS011;50167;47.958;21.780;2023-02-28T07:04:53;10.60;;;6.85;;
63975;SDS011;50167;47.958;21.780;2023-02-28T07:07:19;9.73;;;6.87;;
63975;SDS011;50167;47.958;21.780;2023-02-28T07:09:45;11.97;;;6.17;;
63975;SDS011;50167;47.958;21.780;2023-02-28T07:12:12;9.60;;;5.87;;
63975;SDS011;50167;47.958;21.780;2023-02-28T07:14:38;11.43;;;6.30;;
63975;SDS011;50167;47.958;21.780;2023-02-28T07:17:06;12.40;;;6.90;;
63975;SDS011;50167;47.958;21.780;2023-02-28T07:19:33;10.83;;;7.20;;
63975;SDS011;50167;47.958;21.780;2023-02-28T07:22:00;11.53;;;7.63;;
63975;SDS011;50167;47.958;21.780;2023-02-28T07:24:28;13.10;;;7.00;;
63975;SDS011;50167;47.958;21.780;2023-02-28T07:26:54;8.97;;;5.97;;
63975;SDS011;50167;47.958;21.780;2023-02-28T07:29:21;10.27;;;7.10;;
63975;SDS011;50167;47.958;21.780;2023-02-28T07:31:47;9.17;;;6.17;;
63975;SDS011;50167;47.958;21.780;2023-02-28T07:34:15;9.73;;;5.77;;
63975;SDS011;50167;47.958;21.780;2023-02-28T07:36:41;11.20;;;7.33;;
63975;SDS011;50167;47.958;21.780;2023-02-28T07:39:08;12.23;;;6.93;;
63975;SDS011;50167;47.958;21.780;2023-02-28T07:41:34;9.53;;;6.60;;
63975;SDS011;50167;47.958;21.780;2023-02-28T07:44:03;10.13;;;6.53;;
63975;SDS011;50167;47.958;21.780;2023-02-28T07:46:29;9.40;;;6.83;;
63975;SDS011;50167;47.958;21.780;2023-02-28T07:48:57;22.00;;;7.10;;
63975;SDS011;50167;47.958;21.780;2023-02-28T07:51:25;12.47;;;6.87;;
63975;SDS011;50167;47.958;21.780;2023-02-28T07:57:49;10.70;;;6.50;;
63975;SDS011;50167;47.958;21.780;2023-02-28T08:00:16;12.53;;;6.70;;
63975;SDS011;50167;47.958;21.780;2023-02-28T08:02:42;11.63;;;6.57;;
63975;SDS011;50167;47.958;21.780;2023-02-28T08:05:09;17.17;;;6.23;;
63975;SDS011;50167;47.958;21.780;2023-02-28T08:07:35;15.07;;;8.10;;
63975;SDS011;50167;47.958;21.780;2023-02-28T08:10:01;9.40;;;5.63;;
63975;SDS011;50167;47.958;21.780;2023-02-28T08:12:28;23.50;;;8.40;;
63975;SDS011;50167;47.958;21.780;2023-02-28T08:14:54;14.33;;;7.90;;
63975;SDS011;50167;47.958;21.780;2023-02-28T08:17:20;12.97;;;7.97;;
63975;SDS011;50167;47.958;21.780;2023-02-28T08:19:47;15.13;;;8.33;;
63975;SDS011;50167;47.958;21.780;2023-02-28T08:22:25;12.67;;;7.63;;
63975;SDS011;50167;47.958;21.780;2023-02-28T08:24:51;10.30;;;7.33;;
63975;SDS011;50167;47.958;21.780;2023-02-28T08:27:17;13.57;;;8.00;;
63975;SDS011;50167;47.958;21.780;2023-02-28T08:29:43;11.20;;;7.27;;
63975;SDS011;50167;47.958;21.780;2023-02-28T08:32:10;13.07;;;6.73;;
63975;SDS011;50167;47.958;21.780;2023-02-28T08:34:36;12.73;;;6.57;;
63975;SDS011;50167;47.958;21.780;2023-02-28T08:37:05;10.50;;;6.60;;
63975;SDS011;50167;47.958;21.780;2023-02-28T08:39:35;13.50;;;8.73;;
63975;SDS011;50167;47.958;21.780;2023-02-28T08:42:02;15.93;;;8.60;;
63975;SDS011;50167;47.958;21.780;2023-02-28T08:44:29;13.47;;;7.97;;
63975;SDS011;50167;47.958;21.780;2023-02-28T08:46:55;12.40;;;7.57;;
63975;SDS011;50167;47.958;21.780;2023-02-28T08:49:22;11.53;;;7.20;;
63975;SDS011;50167;47.958;21.780;2023-02-28T08:51:48;10.30;;;6.30;;
63975;SDS011;50167;47.958;21.780;2023-02-28T08:54:14;10.20;;;6.80;;
63975;SDS011;50167;47.958;21.780;2023-02-28T08:56:42;13.20;;;7.27;;
63975;SDS011;50167;47.958;21.780;2023-02-28T08:59:08;10.40;;;6.17;;
63975;SDS011;50167;47.958;21.780;2023-02-28T09:01:35;9.83;;;6.40;;
63975;SDS011;50167;47.958;21.780;2023-02-28T09:04:02;10.57;;;6.60;;
63975;SDS011;50167;47.958;21.780;2023-02-28T09:10:28;15.50;;;9.10;;
63975;SDS011;50167;47.958;21.780;2023-02-28T09:12:55;12.03;;;6.30;;
63975;SDS011;50167;47.958;21.780;2023-02-28T09:15:21;12.10;;;7.33;;
63975;SDS011;50167;47.958;21.780;2023-02-28T09:17:47;14.03;;;8.27;;
63975;SDS011;50167;47.958;21.780;2023-02-28T09:20:13;12.63;;;8.43;;
63975;SDS011;50167;47.958;21.780;2023-02-28T09:22:39;13.57;;;7.97;;
63975;SDS011;50167;47.958;21.780;2023-02-28T09:25:06;11.43;;;8.43;;
63975;SDS011;50167;47.958;21.780;2023-02-28T09:27:32;14.57;;;9.13;;
63975;SDS011;50167;47.958;21.780;2023-02-28T09:29:58;15.20;;;9.07;;
63975;SDS011;50167;47.958;21.780;2023-02-28T09:32:25;10.27;;;6.83;;
63975;SDS011;50167;47.958;21.780;2023-02-28T09:34:54;11.13;;;6.70;;
63975;SDS011;50167;47.958;21.780;2023-02-28T09:37:20;27.97;;;14.97;;
63975;SDS011;50167;47.958;21.780;2023-02-28T09:39:46;14.93;;;9.77;;
63975;SDS011;50167;47.958;21.780;2023-02-28T09:42:18;12.33;;;9.10;;
63975;SDS011;50167;47.958;21.780;2023-02-28T09:44:45;13.93;;;8.10;;
63975;SDS011;50167;47.958;21.780;2023-02-28T09:49:59;12.83;;;7.30;;
63975;SDS011;50167;47.958;21.780;2023-02-28T09:52:36;13.37;;;6.93;;
63975;SDS011;50167;47.958;21.780;2023-02-28T09:58:08;12.00;;;8.13;;
63975;SDS011;50167;47.958;21.780;2023-02-28T10:01:01;9.83;;;6.87;;
63975;SDS011;50167;47.958;21.780;2023-02-28T10:03:43;10.90;;;7.43;;
63975;SDS011;50167;47.958;21.780;2023-02-28T10:06:18;10.77;;;7.13;;
63975;SDS011;50167;47.958;21.780;2023-02-28T10:11:32;8.60;;;6.73;;
63975;SDS011;50167;47.958;21.780;2023-02-28T10:14:02;10.33;;;7.10;;
63975;SDS011;50167;47.958;21.780;2023-02-28T10:16:46;12.23;;;8.43;;
63975;SDS011;50167;47.958;21.780;2023-02-28T10:22:03;15.90;;;10.60;;
63975;SDS011;50167;47.958;21.780;2023-02-28T10:24:44;12.13;;;7.53;;
63975;SDS011;50167;47.958;21.780;2023-02-28T10:27:19;10.57;;;7.07;;
63975;SDS011;50167;47.958;21.780;2023-02-28T10:30:01;19.37;;;12.00;;
63975;SDS011;50167;47.958;21.780;2023-02-28T10:32:32;11.13;;;6.40;;
63975;SDS011;50167;47.958;21.780;2023-02-28T10:37:45;9.80;;;6.57;;
63975;SDS011;50167;47.958;21.780;2023-02-28T10:45:33;9.33;;;6.07;;
63975;SDS011;50167;47.958;21.780;2023-02-28T10:48:50;11.35;;;6.42;;
63975;SDS011;50167;47.958;21.780;2023-02-28T10:55:58;8.67;;;6.40;;
63975;SDS011;50167;47.958;21.780;2023-02-28T10:58:48;7.92;;;5.90;;
63975;SDS011;50167;47.958;21.780;2023-02-28T11:04:01;9.80;;;7.53;;
63975;SDS011;50167;47.958;21.780;2023-02-28T11:06:29;8.87;;;6.13;;
63975;SDS011;50167;47.958;21.780;2023-02-28T11:08:59;12.03;;;6.50;;
63975;SDS011;50167;47.958;21.780;2023-02-28T11:11:30;8.73;;;5.97;;
63975;SDS011;50167;47.958;21.780;2023-02-28T11:16:51;9.75;;;6.65;;
63975;SDS011;50167;47.958;21.780;2023-02-28T11:19:27;10.80;;;6.57;;
63975;SDS011;50167;47.958;21.780;2023-02-28T11:22:02;20.73;;;12.47;;
63975;SDS011;50167;47.958;21.780;2023-02-28T11:24:31;12.03;;;7.80;;
63975;SDS011;50167;47.958;21.780;2023-02-28T11:27:01;12.10;;;7.83;;
63975;SDS011;50167;47.958;21.780;2023-02-28T11:29:29;28.57;;;14.67;;
63975;SDS011;50167;47.958;21.780;2023-02-28T11:32:03;40.80;;;20.03;;
63975;SDS011;50167;47.958;21.780;2023-02-28T11:34:44;11.90;;;7.53;;
63975;SDS011;50167;47.958;21.780;2023-02-28T11:37:13;13.23;;;8.17;;
63975;SDS011;50167;47.958;21.780;2023-02-28T11:39:43;33.95;;;20.32;;
63975;SDS011;50167;47.958;21.780;2023-02-28T11:42:22;26.50;;;16.67;;
63975;SDS011;50167;47.958;21.780;2023-02-28T11:45:11;12.90;;;9.20;;
63975;SDS011;50167;47.958;21.780;2023-02-28T11:50:53;14.25;;;9.88;;
63975;SDS011;50167;47.958;21.780;2023-02-28T11:53:42;9.83;;;7.10;;
63975;SDS011;50167;47.958;21.780;2023-02-28T12:02:19;10.47;;;7.53;;
63975;SDS011;50167;47.958;21.780;2023-02-28T12:11:00;16.10;;;9.03;;
63975;SDS011;50167;47.958;21.780;2023-02-28T12:28:44;18.40;;;11.20;;
63975;SDS011;50167;47.958;21.780;2023-02-28T12:31:18;23.57;;;15.47;;
63975;SDS011;50167;47.958;21.780;2023-02-28T12:34:10;18.07;;;11.63;;
63975;SDS011;50167;47.958;21.780;2023-02-28T12:36:41;10.93;;;7.27;;
63975;SDS011;50167;47.958;21.780;2023-02-28T12:39:19;16.63;;;10.93;;
63975;SDS011;50167;47.958;21.780;2023-02-28T12:41:58;16.43;;;11.37;;
63975;SDS011;50167;47.958;21.780;2023-02-28T12:46:59;15.00;;;7.67;;
63975;SDS011;50167;47.958;21.780;2023-02-28T12:49:34;10.23;;;6.80;;
63975;SDS011;50167;47.958;21.780;2023-02-28T12:52:07;10.70;;;7.37;;
63975;SDS011;50167;47.958;21.780;2023-02-28T12:54:44;12.10;;;7.67;;
63975;SDS011;50167;47.958;21.780;2023-02-28T12:57:27;12.20;;;5.97;;
63975;SDS011;50167;47.958;21.780;2023-02-28T13:00:19;12.03;;;6.23;;
63975;SDS011;50167;47.958;21.780;2023-02-28T13:11:48;10.80;;;7.17;;
63975;SDS011;50167;47.958;21.780;2023-02-28T13:14:29;10.43;;;6.60;;
63975;SDS011;50167;47.958;21.780;2023-02-28T13:28:09;9.33;;;6.07;;
63975;SDS011;50167;47.958;21.780;2023-02-28T13:44:15;9.73;;;6.63;;
63975;SDS011;50167;47.958;21.780;2023-02-28T13:52:06;13.13;;;7.17;;
63975;SDS011;50167;47.958;21.780;2023-02-28T14:06:27;9.97;;;6.37;;
63975;SDS011;50167;47.958;21.780;2023-02-28T14:11:46;9.07;;;6.43;;
63975;SDS011;50167;47.958;21.780;2023-02-28T14:17:12;9.07;;;6.00;;
63975;SDS011;50167;47.958;21.780;2023-02-28T14:19:35;11.03;;;6.33;;
63975;SDS011;50167;47.958;21.780;2023-02-28T14:27:27;12.10;;;7.50;;
63975;SDS011;50167;47.958;21.780;2023-02-28T14:33:25;13.03;;;7.90;;
63975;SDS011;50167;47.958;21.780;2023-02-28T14:38:54;11.53;;;7.37;;
63975;SDS011;50167;47.958;21.780;2023-02-28T14:41:32;12.67;;;7.57;;
63975;SDS011;50167;47.958;21.780;2023-02-28T14:46:53;13.90;;;9.23;;
63975;SDS011;50167;47.958;21.780;2023-02-28T14:49:32;8.33;;;6.17;;
63975;SDS011;50167;47.958;21.780;2023-02-28T14:54:51;9.18;;;6.00;;
63975;SDS011;50167;47.958;21.780;2023-02-28T14:57:28;9.97;;;6.40;;
63975;SDS011;50167;47.958;21.780;2023-02-28T15:02:26;12.13;;;7.50;;
63975;SDS011;50167;47.958;21.780;2023-02-28T15:05:01;11.33;;;7.30;;
63975;SDS011;50167;47.958;21.780;2023-02-28T15:07:37;12.00;;;7.97;;
63975;SDS011;50167;47.958;21.780;2023-02-28T15:10:12;12.63;;;9.13;;
63975;SDS011;50167;47.958;21.780;2023-02-28T15:12:41;11.23;;;7.77;;
63975;SDS011;50167;47.958;21.780;2023-02-28T15:15:23;14.90;;;11.43;;
63975;SDS011;50167;47.958;21.780;2023-02-28T15:18:21;10.77;;;7.47;;
63975;SDS011;50167;47.958;21.780;2023-02-28T15:20:51;9.63;;;6.83;;
63975;SDS011;50167;47.958;21.780;2023-02-28T15:23:18;9.33;;;6.03;;
63975;SDS011;50167;47.958;21.780;2023-02-28T15:25:46;10.63;;;6.40;;
63975;SDS011;50167;47.958;21.780;2023-02-28T15:28:16;11.93;;;8.10;;
63975;SDS011;50167;47.958;21.780;2023-02-28T15:33:24;10.20;;;7.43;;
63975;SDS011;50167;47.958;21.780;2023-02-28T15:38:54;13.70;;;7.40;;
63975;SDS011;50167;47.958;21.780;2023-02-28T15:41:31;10.37;;;6.67;;
63975;SDS011;50167;47.958;21.780;2023-02-28T15:47:01;9.10;;;6.70;;
63975;SDS011;50167;47.958;21.780;2023-02-28T15:49:29;12.37;;;6.80;;
63975;SDS011;50167;47.958;21.780;2023-02-28T15:52:05;13.27;;;7.40;;
63975;SDS011;50167;47.958;21.780;2023-02-28T15:54:35;15.58;;;7.90;;
63975;SDS011;50167;47.958;21.780;2023-02-28T15:57:06;12.77;;;7.90;;
63975;SDS011;50167;47.958;21.780;2023-02-28T15:59:35;13.40;;;8.53;;
63975;SDS011;50167;47.958;21.780;2023-02-28T16:04:59;13.37;;;8.03;;
63975;SDS011;50167;47.958;21.780;2023-02-28T16:07:39;12.60;;;8.27;;
63975;SDS011;50167;47.958;21.780;2023-02-28T16:10:09;11.90;;;7.63;;
63975;SDS011;50167;47.958;21.780;2023-02-28T16:12:39;12.58;;;7.55;;
63975;SDS011;50167;47.958;21.780;2023-02-28T16:15:20;15.97;;;8.90;;
63975;SDS011;50167;47.958;21.780;2023-02-28T16:17:54;14.83;;;8.97;;
63975;SDS011;50167;47.958;21.780;2023-02-28T16:20:23;15.17;;;9.37;;
63975;SDS011;50167;47.958;21.780;2023-02-28T16:22:52;11.30;;;7.08;;
63975;SDS011;50167;47.958;21.780;2023-02-28T16:25:20;12.10;;;7.97;;
63975;SDS011;50167;47.958;21.780;2023-02-28T16:27:50;16.03;;;10.97;;
63975;SDS011;50167;47.958;21.780;2023-02-28T16:30:24;14.37;;;8.50;;
63975;SDS011;50167;47.958;21.780;2023-02-28T16:32:53;12.87;;;8.47;;
63975;SDS011;50167;47.958;21.780;2023-02-28T16:35:21;14.00;;;9.90;;
63975;SDS011;50167;47.958;21.780;2023-02-28T16:37:48;14.00;;;9.53;;
63975;SDS011;50167;47.958;21.780;2023-02-28T16:40:18;18.30;;;10.50;;
63975;SDS011;50167;47.958;21.780;2023-02-28T16:42:51;14.60;;;9.90;;
63975;SDS011;50167;47.958;21.780;2023-02-28T16:45:25;18.07;;;10.63;;
63975;SDS011;50167;47.958;21.780;2023-02-28T16:47:52;18.33;;;11.83;;
63975;SDS011;50167;47.958;21.780;2023-02-28T16:50:20;17.53;;;10.47;;
63975;SDS011;50167;47.958;21.780;2023-02-28T16:52:55;23.87;;;11.17;;
63975;SDS011;50167;47.958;21.780;2023-02-28T16:55:22;18.40;;;11.17;;
63975;SDS011;50167;47.958;21.780;2023-02-28T16:57:51;27.27;;;13.73;;
63975;SDS011;50167;47.958;21.780;2023-02-28T17:00:21;20.10;;;12.00;;
63975;SDS011;50167;47.958;21.780;2023-02-28T17:02:50;27.30;;;12.87;;
63975;SDS011;50167;47.958;21.780;2023-02-28T17:05:16;23.03;;;12.80;;
63975;SDS011;50167;47.958;21.780;2023-02-28T17:07:44;25.43;;;13.27;;
63975;SDS011;50167;47.958;21.780;2023-02-28T17:10:16;18.93;;;11.27;;
63975;SDS011;50167;47.958;21.780;2023-02-28T17:12:45;18.53;;;10.90;;
63975;SDS011;50167;47.958;21.780;2023-02-28T17:15:13;16.03;;;9.90;;
63975;SDS011;50167;47.958;21.780;2023-02-28T17:17:41;19.50;;;10.67;;
63975;SDS011;50167;47.958;21.780;2023-02-28T17:20:14;18.30;;;10.50;;
63975;SDS011;50167;47.958;21.780;2023-02-28T17:22:41;18.23;;;11.87;;
63975;SDS011;50167;47.958;21.780;2023-02-28T17:25:08;23.73;;;12.20;;
63975;SDS011;50167;47.958;21.780;2023-02-28T17:27:36;20.50;;;12.23;;
63975;SDS011;50167;47.958;21.780;2023-02-28T17:30:08;25.97;;;13.13;;
63975;SDS011;50167;47.958;21.780;2023-02-28T17:32:43;21.07;;;13.37;;
63975;SDS011;50167;47.958;21.780;2023-02-28T17:35:09;23.50;;;13.13;;
63975;SDS011;50167;47.958;21.780;2023-02-28T17:37:36;21.43;;;12.87;;
63975;SDS011;50167;47.958;21.780;2023-02-28T17:40:02;24.87;;;13.37;;
63975;SDS011;50167;47.958;21.780;2023-02-28T17:42:29;24.23;;;14.10;;
63975;SDS011;50167;47.958;21.780;2023-02-28T17:44:55;23.13;;;11.80;;
63975;SDS011;50167;47.958;21.780;2023-02-28T17:47:21;22.57;;;13.13;;
63975;SDS011;50167;47.958;21.780;2023-02-28T17:49:50;21.27;;;12.97;;
63975;SDS011;50167;47.958;21.780;2023-02-28T17:52:17;24.20;;;14.77;;
63975;SDS011;50167;47.958;21.780;2023-02-28T17:54:43;22.90;;;12.60;;
63975;SDS011;50167;47.958;21.780;2023-02-28T17:57:12;24.80;;;14.73;;